Time;durP1;ratioP1;P1;durP2;ratioP2;P2;SDS_P1;SDS_P2;PMS_P1;PMS_P2;Temp;Humidity;BMP_temperature;BMP_pressure;BME280_temperature;BME280_humidity;BME280_pressure;Samples;Min_cycle;Max_cycle;Signal;HPM_P1;HPM_P2
2022/09/05 00:00:18;;;;;;;16.90;15.20;;;18.50;99.90;;;;;;4955130;28;20050;-66
2022/09/05 00:03:16;;;;;;;19.55;15.50;;;18.50;99.90;;;;;;4968535;28;20051;-66
2022/09/05 00:06:05;;;;;;;17.48;15.48;;;18.50;99.90;;;;;;4968743;28;20416;-66
2022/09/05 00:09:03;;;;;;;16.48;15.18;;;18.50;99.90;;;;;;4968620;28;20892;-66
2022/09/05 00:11:52;;;;;;;18.13;13.77;;;18.40;99.90;;;;;;4966733;28;20051;-66
2022/09/05 00:14:51;;;;;;;15.63;13.93;;;18.40;99.90;;;;;;4968044;28;20064;-66
2022/09/05 00:17:42;;;;;;;16.20;14.52;;;18.30;99.90;;;;;;4968503;28;20095;-67
2022/09/05 00:20:38;;;;;;;16.05;13.90;;;18.30;99.90;;;;;;4968175;28;20082;-66
2022/09/05 00:23:25;;;;;;;17.55;15.88;;;18.30;99.90;;;;;;4968436;28;20058;-66
2022/09/05 00:26:09;;;;;;;18.70;17.00;;;18.20;99.90;;;;;;4968015;28;20118;-66
2022/09/05 00:28:53;;;;;;;22.52;17.73;;;18.20;99.90;;;;;;4966953;28;20056;-66
2022/09/05 00:31:32;;;;;;;20.33;16.77;;;18.00;99.90;;;;;;4967400;28;20050;-66
2022/09/05 00:34:03;;;;;;;20.70;18.55;;;17.90;99.90;;;;;;4968431;28;20054;-66
2022/09/05 00:36:55;;;;;;;20.60;18.60;;;17.80;99.90;;;;;;4971894;28;20050;-66
2022/09/05 00:39:41;;;;;;;21.15;18.98;;;17.70;99.90;;;;;;4984593;28;20069;-66
2022/09/05 00:42:14;;;;;;;21.17;18.98;;;17.70;99.90;;;;;;4982241;28;20050;-66
2022/09/05 00:44:52;;;;;;;22.38;19.60;;;17.70;99.90;;;;;;4971795;28;20130;-66
2022/09/05 00:47:32;;;;;;;22.43;19.13;;;17.70;99.90;;;;;;4966464;28;20070;-66
2022/09/05 00:50:09;;;;;;;21.20;19.10;;;17.60;99.90;;;;;;4952146;28;20295;-66
2022/09/05 00:52:41;;;;;;;19.63;17.80;;;17.50;99.90;;;;;;4961651;28;20049;-66
2022/09/05 00:55:09;;;;;;;21.83;19.60;;;17.50;99.90;;;;;;4971518;28;20293;-66
2022/09/05 00:57:50;;;;;;;22.67;18.27;;;17.50;99.90;;;;;;4969921;28;20046;-66
2022/09/05 01:00:20;;;;;;;21.90;19.77;;;17.60;99.90;;;;;;4959004;28;20146;-66
2022/09/05 01:03:10;;;;;;;19.05;17.20;;;17.50;99.90;;;;;;4950927;28;20055;-66
2022/09/05 01:05:57;;;;;;;21.75;19.83;;;17.50;99.90;;;;;;4951216;29;20094;-66
2022/09/05 01:09:00;;;;;;;22.30;20.15;;;17.50;99.90;;;;;;4967294;28;20098;-66
2022/09/05 01:11:39;;;;;;;22.30;20.13;;;17.40;99.90;;;;;;4971269;28;20142;-66
2022/09/05 01:14:10;;;;;;;21.10;19.00;;;17.40;99.90;;;;;;4970851;28;20101;-66
2022/09/05 01:17:04;;;;;;;24.70;20.40;;;17.30;99.90;;;;;;4971493;28;20054;-66
2022/09/05 01:19:54;;;;;;;21.20;19.25;;;17.30;99.90;;;;;;4971648;28;20058;-66
2022/09/05 01:22:23;;;;;;;20.50;18.17;;;17.30;99.90;;;;;;4971349;28;20118;-66
2022/09/05 01:24:54;;;;;;;19.67;17.77;;;17.30;99.90;;;;;;4971226;28;20053;-66
2022/09/05 01:28:00;;;;;;;18.77;16.95;;;17.40;99.90;;;;;;4969842;28;20469;-66
2022/09/05 01:30:39;;;;;;;18.48;16.67;;;17.30;99.90;;;;;;4970029;28;20153;-66
2022/09/05 01:33:24;;;;;;;18.73;16.83;;;17.40;99.90;;;;;;4967905;28;20157;-66
2022/09/05 01:36:18;;;;;;;19.60;17.50;;;17.40;99.90;;;;;;4983139;28;20042;-66
2022/09/05 01:38:55;;;;;;;20.10;17.98;;;17.40;99.90;;;;;;4972147;28;20051;-66
2022/09/05 01:41:42;;;;;;;21.83;18.92;;;17.40;99.90;;;;;;4970458;28;20062;-66
2022/09/05 01:44:20;;;;;;;20.27;18.17;;;17.20;99.90;;;;;;4968211;28;20043;-66
2022/09/05 01:47:15;;;;;;;25.27;18.63;;;17.20;99.90;;;;;;4953471;28;20291;-66
2022/09/05 01:50:14;;;;;;;23.88;21.20;;;17.20;99.90;;;;;;4960558;28;20484;-66
2022/09/05 01:53:01;;;;;;;22.08;19.83;;;17.10;99.90;;;;;;4969927;28;20072;-66
2022/09/05 01:55:38;;;;;;;23.20;21.05;;;16.90;99.90;;;;;;4970418;28;20082;-66
2022/09/05 01:58:37;;;;;;;23.48;21.15;;;16.80;99.90;;;;;;4970144;28;20043;-66
2022/09/05 02:01:43;;;;;;;21.33;19.42;;;16.80;99.90;;;;;;4951445;28;20432;-66
2022/09/05 02:04:46;;;;;;;21.97;19.57;;;16.80;99.90;;;;;;4910069;29;20071;-66
2022/09/05 02:07:30;;;;;;;20.35;18.08;;;16.80;99.90;;;;;;4919003;29;20292;-66
2022/09/05 02:10:31;;;;;;;24.25;21.85;;;16.80;99.90;;;;;;4947689;29;20094;-66
2022/09/05 02:13:21;;;;;;;24.75;21.85;;;16.80;99.90;;;;;;4970467;28;20050;-66
2022/09/05 02:16:00;;;;;;;24.77;22.23;;;16.70;99.90;;;;;;4969696;28;20053;-66
2022/09/05 02:18:46;;;;;;;;;;;16.70;99.90;;;;;;4950265;28;20062;-66
2022/09/05 02:21:23;;;;;;;21.60;19.43;;;16.70;99.90;;;;;;4949871;28;20013;-66
2022/09/05 02:24:22;;;;;;;20.40;18.38;;;16.70;99.90;;;;;;4956306;28;20299;-66
2022/09/05 02:27:09;;;;;;;20.52;18.52;;;16.70;99.90;;;;;;4956748;28;20055;-66
2022/09/05 02:29:45;;;;;;;20.88;18.83;;;16.70;99.90;;;;;;4954653;28;20047;-66
2022/09/05 02:32:22;;;;;;;20.40;18.33;;;16.70;99.90;;;;;;4967279;28;20125;-66
2022/09/05 02:34:57;;;;;;;21.42;19.35;;;16.70;99.90;;;;;;4962765;28;20039;-66
2022/09/05 02:37:39;;;;;;;19.55;17.55;;;16.70;99.90;;;;;;4970207;28;20055;-68
2022/09/05 02:40:27;;;;;;;21.13;18.80;;;16.70;99.90;;;;;;4969715;28;20047;-66
2022/09/05 02:42:56;;;;;;;21.63;19.52;;;16.70;99.90;;;;;;4969198;28;20062;-66
2022/09/05 02:45:48;;;;;;;21.50;19.48;;;16.60;99.90;;;;;;4969240;28;20055;-66
2022/09/05 02:48:52;;;;;;;21.48;19.52;;;16.60;99.90;;;;;;4968596;28;20129;-66
2022/09/05 02:51:34;;;;;;;21.55;19.48;;;16.60;99.90;;;;;;4931983;28;20733;-68
2022/09/05 02:54:05;;;;;;;22.00;19.67;;;16.60;99.90;;;;;;4958292;28;20054;-68
2022/09/05 02:56:31;;;;;;;22.17;20.17;;;16.50;99.90;;;;;;4959222;28;20053;-66
2022/09/05 02:59:40;;;;;;;21.50;19.60;;;16.50;99.90;;;;;;4969399;28;20054;-66
2022/09/05 03:02:27;;;;;;;20.10;18.13;;;16.50;99.90;;;;;;4955284;28;20063;-66
2022/09/05 03:05:17;;;;;;;23.48;20.13;;;16.40;99.90;;;;;;4968145;28;20062;-66
2022/09/05 03:08:13;;;;;;;24.00;21.63;;;16.40;99.90;;;;;;4959861;28;20047;-66
2022/09/05 03:10:57;;;;;;;23.42;20.95;;;16.40;99.90;;;;;;4969183;28;20043;-67
2022/09/05 03:13:47;;;;;;;22.55;20.27;;;16.30;99.90;;;;;;4961932;28;20504;-67
2022/09/05 03:16:50;;;;;;;26.05;23.65;;;16.20;99.90;;;;;;4968363;28;20066;-66
2022/09/05 03:19:30;;;;;;;25.50;22.58;;;16.10;99.90;;;;;;4962119;28;20060;-66
2022/09/05 03:22:02;;;;;;;25.92;23.45;;;16.00;99.90;;;;;;4960334;28;20936;-67
2022/09/05 03:24:57;;;;;;;26.30;23.58;;;16.00;99.90;;;;;;4968259;28;20078;-66
2022/09/05 03:28:02;;;;;;;25.58;22.85;;;16.00;99.90;;;;;;4966510;28;20078;-67
2022/09/05 03:30:59;;;;;;;24.88;22.33;;;16.00;99.90;;;;;;4968233;28;20052;-66
2022/09/05 03:33:50;;;;;;;22.58;20.52;;;16.00;99.90;;;;;;4967110;28;20424;-66
2022/09/05 03:36:57;;;;;;;24.58;22.33;;;16.00;99.90;;;;;;4962956;28;20116;-67
2022/09/05 03:39:53;;;;;;;24.67;22.43;;;16.00;99.90;;;;;;4951604;28;20113;-67
2022/09/05 03:42:50;;;;;;;25.02;22.65;;;15.90;99.90;;;;;;4967898;28;20297;-66
2022/09/05 03:45:29;;;;;;;25.60;22.45;;;15.90;99.90;;;;;;4972447;28;20065;-67
2022/09/05 03:48:01;;;;;;;24.00;21.50;;;15.90;99.90;;;;;;4957310;28;20053;-66
2022/09/05 03:50:44;;;;;;;23.23;21.13;;;15.90;99.90;;;;;;4966201;28;20133;-67
2022/09/05 03:53:23;;;;;;;23.98;21.73;;;15.90;99.90;;;;;;4963866;28;20070;-67
2022/09/05 03:56:14;;;;;;;25.25;22.65;;;15.90;99.90;;;;;;4950288;28;20404;-69
2022/09/05 03:58:54;;;;;;;23.90;21.48;;;15.80;99.90;;;;;;4967272;28;20050;-67
2022/09/05 04:01:34;;;;;;;30.88;22.92;;;15.80;99.90;;;;;;4965804;28;20057;-67
2022/09/05 04:04:19;;;;;;;24.98;22.10;;;15.80;99.90;;;;;;4967639;28;20043;-67
2022/09/05 04:06:53;;;;;;;24.00;21.88;;;15.70;99.90;;;;;;4953579;28;20052;-67
2022/09/05 04:09:25;;;;;;;27.33;23.73;;;15.70;99.90;;;;;;4969523;28;20558;-67
2022/09/05 04:12:00;;;;;;;25.50;23.02;;;15.70;99.90;;;;;;4970454;28;20043;-67
2022/09/05 04:14:55;;;;;;;22.90;20.73;;;15.70;99.90;;;;;;4971788;28;20667;-67
2022/09/05 04:17:41;;;;;;;28.02;25.10;;;15.70;99.90;;;;;;4972014;28;20448;-69
2022/09/05 04:20:16;;;;;;;28.38;25.45;;;15.70;99.90;;;;;;4971056;28;20047;-67
2022/09/05 04:23:06;;;;;;;23.15;20.95;;;15.70;99.90;;;;;;4971321;28;20043;-67
2022/09/05 04:26:01;;;;;;;28.02;24.27;;;15.60;99.90;;;;;;4967798;28;20078;-67
2022/09/05 04:29:08;;;;;;;24.40;21.98;;;15.50;99.90;;;;;;4965272;28;20588;-67
2022/09/05 04:31:47;;;;;;;29.75;26.55;;;15.40;99.90;;;;;;4967693;28;20078;-67
2022/09/05 04:34:50;;;;;;;31.02;27.85;;;15.30;99.90;;;;;;4969368;28;20125;-67
2022/09/05 04:37:54;;;;;;;30.25;27.17;;;15.30;99.90;;;;;;4927883;28;20055;-67
2022/09/05 04:40:59;;;;;;;31.75;28.67;;;15.20;99.90;;;;;;4971933;28;20055;-67
2022/09/05 04:43:43;;;;;;;30.15;27.35;;;15.20;99.90;;;;;;4968532;28;20529;-67
2022/09/05 04:46:19;;;;;;;29.88;27.13;;;15.10;99.90;;;;;;4959922;28;20047;-67
2022/09/05 04:48:59;;;;;;;29.60;26.45;;;15.10;99.90;;;;;;4971641;28;20034;-67
2022/09/05 04:51:44;;;;;;;28.05;25.15;;;15.10;99.90;;;;;;4970867;28;20046;-67
2022/09/05 04:54:31;;;;;;;29.35;26.35;;;15.10;99.90;;;;;;4970758;28;20121;-67
2022/09/05 04:57:06;;;;;;;27.83;24.87;;;15.10;99.90;;;;;;4961829;28;20509;-67
2022/09/05 04:59:43;;;;;;;28.25;25.45;;;15.10;99.90;;;;;;4954258;28;20038;-67
2022/09/05 05:02:39;;;;;;;26.92;24.45;;;15.10;99.90;;;;;;4961520;28;20385;-67
2022/09/05 05:05:10;;;;;;;28.67;25.83;;;15.10;99.90;;;;;;4957071;28;20077;-67
2022/09/05 05:07:54;;;;;;;27.10;24.50;;;15.10;99.90;;;;;;4971399;28;20073;-67
2022/09/05 05:10:42;;;;;;;29.05;26.25;;;15.10;99.90;;;;;;4971461;28;20055;-67
2022/09/05 05:13:26;;;;;;;36.28;25.80;;;15.10;99.90;;;;;;4971554;28;20047;-67
2022/09/05 05:16:00;;;;;;;28.75;25.63;;;15.10;99.90;;;;;;4970623;28;20493;-67
2022/09/05 05:18:32;;;;;;;29.23;26.15;;;15.10;99.90;;;;;;4971124;28;20089;-67
2022/09/05 05:21:14;;;;;;;29.30;26.23;;;15.20;99.90;;;;;;4970122;28;20054;-67
2022/09/05 05:23:44;;;;;;;27.15;24.35;;;15.20;99.90;;;;;;4965568;28;20042;-67
2022/09/05 05:26:19;;;;;;;35.67;25.65;;;15.20;99.90;;;;;;4963330;28;20039;-67
2022/09/05 05:28:58;;;;;;;32.90;24.88;;;15.30;99.90;;;;;;4971038;28;20046;-67
2022/09/05 05:31:32;;;;;;;33.92;25.10;;;15.50;99.90;;;;;;4972270;28;20047;-67
2022/09/05 05:34:01;;;;;;;28.42;25.63;;;15.70;99.90;;;;;;4970841;28;20038;-67
2022/09/05 05:36:35;;;;;;;30.00;26.95;;;15.70;99.90;;;;;;4970890;28;20054;-67
2022/09/05 05:39:14;;;;;;;30.67;27.65;;;15.70;99.90;;;;;;4970462;28;20173;-67
2022/09/05 05:41:46;;;;;;;29.48;26.42;;;15.70;99.90;;;;;;4971082;28;20066;-68
2022/09/05 05:44:30;;;;;;;33.20;26.60;;;15.60;99.90;;;;;;4969356;28;20471;-67
2022/09/05 05:47:01;;;;;;;30.65;27.52;;;15.50;99.90;;;;;;4970501;28;20406;-66
2022/09/05 05:49:44;;;;;;;31.27;28.20;;;15.50;99.90;;;;;;4970574;28;20572;-66
2022/09/05 05:52:36;;;;;;;32.20;28.73;;;15.50;99.90;;;;;;4970257;28;20419;-66
2022/09/05 05:55:30;;;;;;;31.80;28.13;;;15.40;99.90;;;;;;4969363;28;20054;-66
2022/09/05 05:58:30;;;;;;;30.95;27.52;;;15.40;99.90;;;;;;4963742;28;20117;-67
2022/09/05 06:01:22;;;;;;;32.88;29.08;;;15.30;99.90;;;;;;4950535;28;20683;-67
2022/09/05 06:03:53;;;;;;;34.22;28.85;;;15.20;99.90;;;;;;4961098;28;20047;-67
2022/09/05 06:06:44;;;;;;;31.35;28.08;;;15.20;99.90;;;;;;4955414;28;20601;-66
2022/09/05 06:09:37;;;;;;;33.17;29.55;;;15.20;99.90;;;;;;4957839;28;20073;-66
2022/09/05 06:12:41;;;;;;;40.42;28.95;;;15.10;99.90;;;;;;4959813;28;20046;-67
2022/09/05 06:15:43;;;;;;;34.22;30.90;;;15.20;99.90;;;;;;4968524;28;20483;-67
2022/09/05 06:18:43;;;;;;;35.58;30.33;;;15.30;99.90;;;;;;4968835;28;20038;-67
2022/09/05 06:21:27;;;;;;;32.10;28.98;;;15.30;99.90;;;;;;4954505;28;20050;-67
2022/09/05 06:24:17;;;;;;;31.85;28.75;;;15.30;99.90;;;;;;4969449;28;20053;-67
2022/09/05 06:27:07;;;;;;;32.67;29.08;;;15.40;99.90;;;;;;4958465;28;20077;-66
2022/09/05 06:29:56;;;;;;;31.20;28.13;;;15.50;99.90;;;;;;4961311;28;20510;-67
2022/09/05 06:32:49;;;;;;;34.25;30.75;;;15.50;99.90;;;;;;4965329;28;20508;-67
2022/09/05 06:35:31;;;;;;;33.38;29.15;;;15.60;99.90;;;;;;4962917;28;20504;-67
2022/09/05 06:38:26;;;;;;;31.38;28.27;;;15.70;99.90;;;;;;4964400;28;20054;-67
2022/09/05 06:41:24;;;;;;;32.25;28.77;;;15.80;99.90;;;;;;4963189;28;20039;-68
2022/09/05 06:44:24;;;;;;;31.83;28.52;;;16.00;99.90;;;;;;4966403;28;20062;-68
2022/09/05 06:46:55;;;;;;;33.67;30.02;;;16.20;99.90;;;;;;4950825;28;20043;-68
2022/09/05 06:49:38;;;;;;;30.92;27.77;;;16.40;99.90;;;;;;4968578;28;20113;-68
2022/09/05 06:52:34;;;;;;;29.25;26.10;;;16.50;99.90;;;;;;4958257;28;20060;-69
2022/09/05 06:55:37;;;;;;;28.38;24.63;;;16.80;99.90;;;;;;4974600;28;20065;-70
2022/09/05 06:58:24;;;;;;;26.98;24.42;;;17.10;99.90;;;;;;4968014;28;20046;-69
2022/09/05 07:00:53;;;;;;;32.28;24.35;;;17.40;99.90;;;;;;4968947;28;20129;-69
2022/09/05 07:03:40;;;;;;;35.83;26.02;;;17.70;99.90;;;;;;4969184;28;20082;-69
2022/09/05 07:06:18;;;;;;;27.25;24.55;;;18.00;99.90;;;;;;4968273;28;20105;-69
2022/09/05 07:09:13;;;;;;;28.20;24.88;;;18.30;99.90;;;;;;4969128;28;20492;-69
2022/09/05 07:11:54;;;;;;;26.10;23.55;;;18.50;99.90;;;;;;4968189;28;20051;-69
2022/09/05 07:14:24;;;;;;;23.25;21.05;;;18.70;99.90;;;;;;4967318;28;20096;-69
2022/09/05 07:16:54;;;;;;;25.13;22.75;;;18.80;99.90;;;;;;4968190;28;20127;-69
2022/09/05 07:19:34;;;;;;;23.05;20.75;;;19.20;99.90;;;;;;4968655;28;20113;-69
2022/09/05 07:22:31;;;;;;;23.08;20.88;;;19.50;99.90;;;;;;4967946;28;20178;-69
2022/09/05 07:25:04;;;;;;;25.10;21.88;;;19.80;99.90;;;;;;4968438;28;20132;-69
2022/09/05 07:27:49;;;;;;;20.98;19.08;;;20.00;99.90;;;;;;4965998;28;20117;-69
2022/09/05 07:30:19;;;;;;;20.88;18.90;;;20.40;99.90;;;;;;4968395;28;20065;-69
2022/09/05 07:32:50;;;;;;;20.42;18.38;;;20.80;99.90;;;;;;4965347;28;20556;-70
2022/09/05 07:35:25;;;;;;;20.50;18.10;;;21.00;99.90;;;;;;4968632;28;20089;-70
2022/09/05 07:38:04;;;;;;;22.80;20.45;;;21.20;99.90;;;;;;4967937;28;20050;-69
2022/09/05 07:40:34;;;;;;;22.27;19.90;;;21.40;99.90;;;;;;4950484;28;20055;-69
2022/09/05 07:43:16;;;;;;;22.02;19.83;;;21.60;99.90;;;;;;4968248;28;20082;-69
2022/09/05 07:46:05;;;;;;;23.35;20.40;;;21.70;99.90;;;;;;4967969;28;20047;-69
2022/09/05 07:48:39;;;;;;;21.20;19.17;;;21.90;99.90;;;;;;4968507;28;20047;-69
2022/09/05 07:51:08;;;;;;;24.67;19.10;;;22.10;99.90;;;;;;4968360;28;20051;-69
2022/09/05 07:53:36;;;;;;;22.15;19.83;;;22.30;99.90;;;;;;4967594;28;20155;-69
2022/09/05 07:56:07;;;;;;;22.20;20.05;;;22.40;99.90;;;;;;4968324;28;20050;-69
2022/09/05 07:58:42;;;;;;;21.95;19.92;;;22.50;99.90;;;;;;4968323;28;20051;-70
2022/09/05 08:01:13;;;;;;;22.73;20.67;;;22.60;99.90;;;;;;4968647;28;20073;-69
2022/09/05 08:03:42;;;;;;;21.10;18.92;;;22.70;99.90;;;;;;4966714;28;20618;-77
2022/09/05 08:06:15;;;;;;;19.92;18.02;;;22.90;99.90;;;;;;4966774;28;20389;-78
2022/09/05 08:09:01;;;;;;;19.08;17.15;;;23.10;99.90;;;;;;4957223;28;20058;-78
2022/09/05 08:11:31;;;;;;;27.48;19.10;;;23.20;99.90;;;;;;4968562;28;20047;-68
2022/09/05 08:14:06;;;;;;;20.42;18.23;;;23.40;99.90;;;;;;4966173;28;20101;-68
2022/09/05 08:16:33;;;;;;;25.02;18.15;;;23.50;99.90;;;;;;4949088;28;20058;-69
2022/09/05 08:19:02;;;;;;;18.90;16.90;;;23.70;99.90;;;;;;4960620;28;20581;-69
2022/09/05 08:21:50;;;;;;;18.63;16.73;;;23.80;99.90;;;;;;4968412;28;20141;-69
2022/09/05 08:24:31;;;;;;;27.65;17.05;;;24.00;98.20;;;;;;4964147;28;20090;-69
2022/09/05 08:27:16;;;;;;;18.20;16.08;;;24.10;98.40;;;;;;4955426;28;20051;-69
2022/09/05 08:29:52;;;;;;;26.50;17.92;;;24.30;97.50;;;;;;4964817;28;20051;-69
2022/09/05 08:32:46;;;;;;;17.00;15.05;;;24.20;97.00;;;;;;4966689;28;20405;-69
2022/09/05 08:35:26;;;;;;;18.42;14.75;;;24.50;95.00;;;;;;4964081;28;20043;-69
2022/09/05 08:37:53;;;;;;;20.55;15.20;;;24.60;95.60;;;;;;4961905;28;20053;-69
2022/09/05 08:40:26;;;;;;;16.85;15.38;;;24.70;94.90;;;;;;4967956;28;20419;-69
2022/09/05 08:43:02;;;;;;;16.40;14.68;;;24.70;94.20;;;;;;4957547;28;20051;-70
2022/09/05 08:45:48;;;;;;;20.95;14.35;;;24.70;93.50;;;;;;4966703;28;20050;-70
2022/09/05 08:48:53;;;;;;;20.02;14.68;;;24.90;92.80;;;;;;4961967;28;20132;-69
2022/09/05 08:51:27;;;;;;;18.25;14.15;;;25.00;92.60;;;;;;4966935;28;20515;-69
2022/09/05 08:54:04;;;;;;;15.27;13.77;;;25.20;92.00;;;;;;4950751;28;20806;-69
2022/09/05 08:56:36;;;;;;;17.70;14.35;;;25.30;92.00;;;;;;4963919;28;20747;-69
2022/09/05 08:59:18;;;;;;;18.92;14.50;;;25.20;91.20;;;;;;4966951;28;20735;-69
2022/09/05 09:02:20;;;;;;;18.05;15.65;;;25.30;90.80;;;;;;4953889;28;20062;-69
2022/09/05 09:04:55;;;;;;;16.88;15.13;;;25.30;90.00;;;;;;4970855;28;20082;-70
2022/09/05 09:07:30;;;;;;;17.33;14.27;;;25.30;90.20;;;;;;4958306;28;20083;-69
2022/09/05 09:10:07;;;;;;;18.70;16.80;;;25.40;91.10;;;;;;4965150;28;20049;-69
2022/09/05 09:13:10;;;;;;;17.20;15.57;;;25.50;90.20;;;;;;4964722;28;20125;-70
2022/09/05 09:15:52;;;;;;;18.75;16.90;;;25.60;89.00;;;;;;4966769;28;20046;-70
2022/09/05 09:18:20;;;;;;;21.83;17.13;;;25.70;87.00;;;;;;4964970;28;20085;-69
2022/09/05 09:20:53;;;;;;;18.90;16.15;;;25.60;87.40;;;;;;4970288;28;20161;-69
2022/09/05 09:23:36;;;;;;;18.55;16.73;;;25.80;87.20;;;;;;4970191;28;20114;-70
2022/09/05 09:26:26;;;;;;;20.00;14.65;;;25.70;85.50;;;;;;4969347;28;20047;-69
2022/09/05 09:28:56;;;;;;;17.48;15.75;;;25.80;86.30;;;;;;4968407;28;20047;-70
2022/09/05 09:31:55;;;;;;;18.38;14.90;;;25.90;86.30;;;;;;4969862;28;20061;-69
2022/09/05 09:34:30;;;;;;;34.88;17.05;;;26.00;83.70;;;;;;4964859;28;20046;-69
2022/09/05 09:37:13;;;;;;;17.55;14.82;;;26.30;83.60;;;;;;4965246;28;20051;-69
2022/09/05 09:40:11;;;;;;;17.67;14.82;;;26.40;82.50;;;;;;4968289;28;20050;-70
2022/09/05 09:43:04;;;;;;;13.23;11.82;;;26.60;81.40;;;;;;4965429;28;20086;-69
2022/09/05 09:46:04;;;;;;;20.58;12.85;;;26.70;80.50;;;;;;4967068;28;20042;-69
2022/09/05 09:49:08;;;;;;;14.55;13.05;;;26.90;79.90;;;;;;4962512;28;20117;-69
2022/09/05 09:51:42;;;;;;;17.67;12.55;;;26.90;79.10;;;;;;4965082;28;20129;-70
2022/09/05 09:54:47;;;;;;;14.23;11.57;;;27.20;79.50;;;;;;4969696;28;20177;-70
2022/09/05 09:57:25;;;;;;;12.88;11.77;;;27.30;75.00;;;;;;4969424;28;20106;-69
2022/09/05 09:59:51;;;;;;;12.05;10.75;;;27.50;75.50;;;;;;4964310;28;20101;-70
2022/09/05 10:02:23;;;;;;;11.25;10.38;;;27.60;75.60;;;;;;4967072;28;20448;-69
2022/09/05 10:05:08;;;;;;;11.93;10.82;;;27.70;73.50;;;;;;4967458;28;20046;-70
2022/09/05 10:07:36;;;;;;;15.15;10.27;;;27.70;72.20;;;;;;4967209;28;20133;-70
2022/09/05 10:10:44;;;;;;;11.35;10.30;;;27.80;72.60;;;;;;4966929;28;20050;-70
2022/09/05 10:14:01;;;;;;;10.70;9.70;;;27.90;70.50;;;;;;4952243;28;20089;-70
2022/09/05 10:16:40;;;;;;;10.90;9.80;;;28.00;69.90;;;;;;4928863;28;20086;-69
2022/09/05 10:19:36;;;;;;;17.80;11.20;;;28.10;69.50;;;;;;4969173;28;20105;-70
2022/09/05 10:22:32;;;;;;;16.70;12.23;;;28.20;69.60;;;;;;4961027;28;20058;-69
2022/09/05 10:25:29;;;;;;;16.55;11.52;;;28.00;68.90;;;;;;4962627;28;20074;-70
2022/09/05 10:28:18;;;;;;;17.33;11.07;;;28.10;68.70;;;;;;4966986;28;20046;-69
2022/09/05 10:30:44;;;;;;;19.05;12.15;;;28.00;69.70;;;;;;4966193;28;20043;-69
2022/09/05 10:33:22;;;;;;;21.25;11.30;;;27.90;69.10;;;;;;4968404;28;20084;-69
2022/09/05 10:35:50;;;;;;;10.40;9.30;;;28.10;69.80;;;;;;4962701;28;20575;-69
2022/09/05 10:38:41;;;;;;;12.05;10.70;;;28.30;69.70;;;;;;4965346;28;20046;-69
2022/09/05 10:41:13;;;;;;;9.90;9.05;;;28.50;67.40;;;;;;4965279;28;20504;-70
2022/09/05 10:44:02;;;;;;;9.50;8.70;;;28.60;68.40;;;;;;4968094;28;20062;-69
2022/09/05 10:46:27;;;;;;;13.60;10.25;;;28.70;65.80;;;;;;4968972;28;20105;-70
2022/09/05 10:48:59;;;;;;;12.98;9.82;;;28.60;67.00;;;;;;4967471;28;20043;-70
2022/09/05 10:52:01;;;;;;;11.68;10.57;;;28.70;66.10;;;;;;4967905;28;20045;-70
2022/09/05 10:54:51;;;;;;;11.57;10.48;;;28.90;65.00;;;;;;4965470;28;20233;-70
2022/09/05 10:57:49;;;;;;;13.07;10.15;;;28.70;65.00;;;;;;4968214;28;20038;-70
2022/09/05 11:00:47;;;;;;;12.45;11.27;;;29.00;65.80;;;;;;4967127;28;20051;-70
2022/09/05 11:03:21;;;;;;;14.40;10.80;;;28.90;62.70;;;;;;4964757;28;20082;-70
2022/09/05 11:06:00;;;;;;;15.13;9.68;;;29.00;64.50;;;;;;4966837;28;20109;-70
2022/09/05 11:08:52;;;;;;;11.15;10.10;;;29.00;63.50;;;;;;4966001;28;20728;-69
2022/09/05 11:11:22;;;;;;;13.05;9.48;;;29.00;62.70;;;;;;4965774;28;20082;-69
2022/09/05 11:13:55;;;;;;;15.43;10.00;;;29.10;62.90;;;;;;4964849;28;20082;-71
2022/09/05 11:16:53;;;;;;;12.98;9.77;;;29.20;63.50;;;;;;4966857;28;20062;-71
2022/09/05 11:19:46;;;;;;;11.32;10.23;;;29.40;62.20;;;;;;4948310;28;20082;-70
2022/09/05 11:22:14;;;;;;;13.23;10.10;;;29.50;62.00;;;;;;4968254;28;20042;-70
2022/09/05 11:24:47;;;;;;;11.13;10.02;;;29.60;62.10;;;;;;4969012;28;20046;-69
2022/09/05 11:27:34;;;;;;;11.15;8.95;;;29.80;61.20;;;;;;4966715;28;20042;-70
2022/09/05 11:30:06;;;;;;;14.65;9.73;;;29.90;59.60;;;;;;4965444;28;20050;-70
2022/09/05 11:33:01;;;;;;;10.68;9.63;;;30.00;60.00;;;;;;4966373;28;20455;-70
2022/09/05 11:35:28;;;;;;;12.75;9.50;;;29.90;59.10;;;;;;4968401;28;20046;-69
2022/09/05 11:38:09;;;;;;;9.55;8.65;;;29.90;59.10;;;;;;4967486;28;20133;-69
2022/09/05 11:41:12;;;;;;;10.13;9.18;;;30.10;58.30;;;;;;4959099;28;20054;-69
2022/09/05 11:43:57;;;;;;;9.45;8.57;;;30.10;58.10;;;;;;4961400;28;20460;-70
2022/09/05 11:47:13;;;;;;;10.32;9.30;;;30.10;56.90;;;;;;4959790;28;20098;-68
2022/09/05 11:49:47;;;;;;;12.05;8.95;;;29.90;57.20;;;;;;4967106;28;20035;-68
2022/09/05 11:52:50;;;;;;;12.77;9.75;;;30.00;58.60;;;;;;4962061;28;20098;-69
2022/09/05 11:55:53;;;;;;;10.43;8.82;;;30.00;57.70;;;;;;4966622;28;20051;-68
2022/09/05 11:59:00;;;;;;;11.70;7.85;;;30.10;57.10;;;;;;4957682;28;20054;-68
2022/09/05 12:01:43;;;;;;;15.10;8.48;;;30.10;57.00;;;;;;4892402;29;20052;-68
2022/09/05 12:04:42;;;;;;;8.50;7.80;;;30.20;56.20;;;;;;4962063;28;20508;-68
2022/09/05 12:07:29;;;;;;;8.82;7.97;;;30.20;56.50;;;;;;4961963;28;20054;-69
2022/09/05 12:10:37;;;;;;;13.38;7.60;;;30.30;57.10;;;;;;4965082;28;20055;-69
2022/09/05 12:13:15;;;;;;;7.90;7.20;;;30.40;56.50;;;;;;4901176;29;20110;-69
2022/09/05 12:15:45;;;;;;;8.90;8.20;;;30.50;56.00;;;;;;4901320;29;20064;-69
2022/09/05 12:19:00;;;;;;;8.65;7.95;;;30.30;55.80;;;;;;4936925;28;20546;-68
2022/09/05 12:22:01;;;;;;;16.87;9.83;;;30.50;55.40;;;;;;4889371;29;20117;-68
2022/09/05 12:24:42;;;;;;;9.02;8.02;;;30.40;55.30;;;;;;4961436;28;20144;-68
2022/09/05 12:27:14;;;;;;;10.70;8.18;;;30.50;55.10;;;;;;4963482;28;20057;-68
2022/09/05 12:29:45;;;;;;;10.18;7.75;;;30.30;55.40;;;;;;4967885;28;20042;-68
2022/09/05 12:32:19;;;;;;;8.45;7.65;;;30.40;55.30;;;;;;4967085;28;20051;-69
2022/09/05 12:34:55;;;;;;;11.88;7.10;;;30.30;55.20;;;;;;4971352;28;20121;-69
2022/09/05 12:37:24;;;;;;;7.15;6.63;;;30.40;54.50;;;;;;4970997;28;20164;-69
2022/09/05 12:40:08;;;;;;;7.95;7.32;;;30.40;54.60;;;;;;4963425;28;20110;-69
2022/09/05 12:42:58;;;;;;;7.68;6.97;;;30.50;54.20;;;;;;4970770;28;20427;-69
2022/09/05 12:45:40;;;;;;;10.13;7.10;;;30.50;53.30;;;;;;4966016;28;20144;-70
2022/09/05 12:48:22;;;;;;;9.70;8.75;;;30.50;53.50;;;;;;4969476;28;20091;-70
2022/09/05 12:51:06;;;;;;;9.77;7.78;;;30.40;53.90;;;;;;4953708;28;20077;-70
2022/09/05 12:53:56;;;;;;;8.38;7.68;;;30.30;53.50;;;;;;4962717;28;20074;-70
2022/09/05 12:56:38;;;;;;;12.45;7.47;;;30.40;53.90;;;;;;4965097;28;20050;-70
2022/09/05 12:59:12;;;;;;;8.98;8.15;;;30.50;53.00;;;;;;4970623;28;20070;-69
2022/09/05 13:01:40;;;;;;;8.70;7.68;;;30.40;53.50;;;;;;4970967;28;20043;-69
2022/09/05 13:04:18;;;;;;;12.00;8.73;;;30.50;53.50;;;;;;4967209;28;20050;-69
2022/09/05 13:06:54;;;;;;;7.32;6.72;;;30.50;53.70;;;;;;4970275;28;20042;-69
2022/09/05 13:09:24;;;;;;;8.48;7.47;;;30.50;53.10;;;;;;4963731;28;20840;-69
2022/09/05 13:12:02;;;;;;;11.80;7.05;;;30.60;53.80;;;;;;4958657;28;20051;-70
2022/09/05 13:14:31;;;;;;;8.73;7.88;;;30.60;53.10;;;;;;4969656;28;20046;-70
2022/09/05 13:17:00;;;;;;;9.32;7.60;;;30.70;53.50;;;;;;4970072;28;20062;-68
2022/09/05 13:19:36;;;;;;;9.40;8.18;;;30.80;53.00;;;;;;4969614;28;20057;-69
2022/09/05 13:22:03;;;;;;;8.77;7.73;;;30.80;52.20;;;;;;4969882;28;20054;-70
2022/09/05 13:24:37;;;;;;;7.53;7.03;;;30.70;52.90;;;;;;4961222;28;20153;-69
2022/09/05 13:27:14;;;;;;;8.32;7.68;;;30.50;52.40;;;;;;4965977;28;20147;-69
2022/09/05 13:29:50;;;;;;;11.38;8.15;;;30.40;53.00;;;;;;4968267;28;20046;-70
2022/09/05 13:32:29;;;;;;;8.75;7.82;;;30.30;53.10;;;;;;4969561;28;20047;-67
2022/09/05 13:35:29;;;;;;;7.75;7.15;;;30.20;52.60;;;;;;4962806;28;20043;-69
2022/09/05 13:38:15;;;;;;;9.85;7.93;;;30.20;53.40;;;;;;4954026;28;20042;-68
2022/09/05 13:40:47;;;;;;;8.55;7.85;;;30.20;52.90;;;;;;4965816;28;20130;-68
2022/09/05 13:43:38;;;;;;;7.82;7.18;;;30.10;52.80;;;;;;4966621;28;20550;-70
2022/09/05 13:46:19;;;;;;;9.77;8.75;;;30.10;53.00;;;;;;4969260;28;20435;-69
2022/09/05 13:48:50;;;;;;;8.63;7.80;;;30.10;53.10;;;;;;4969549;28;20530;-68
2022/09/05 13:51:40;;;;;;;9.65;8.75;;;30.10;53.20;;;;;;4970116;28;20049;-68
2022/09/05 13:54:23;;;;;;;10.13;8.38;;;30.10;52.80;;;;;;4951998;28;20043;-67